Time;durP1;ratioP1;P1;durP2;ratioP2;P2;SDS_P1;SDS_P2;PMS_P1;PMS_P2;Temp;Humidity;BMP_temperature;BMP_pressure;BME280_temperature;BME280_humidity;BME280_pressure;Samples;Min_cycle;Max_cycle;Signal;HPM_P1;HPM_P2
2022/05/24 00:00:34;;;;;;;23.55;20.77;;;14.70;99.90;;;;;;5054054;28;20024;-59
2022/05/24 00:03:00;;;;;;;29.42;25.27;;;14.70;99.90;;;;;;5053853;28;20017;-59
2022/05/24 00:05:27;;;;;;;28.10;23.17;;;14.70;99.90;;;;;;5053892;28;20540;-59
2022/05/24 00:07:53;;;;;;;28.92;25.88;;;14.70;99.90;;;;;;5053781;28;20029;-59
2022/05/24 00:10:26;;;;;;;32.53;26.20;;;14.60;99.90;;;;;;5053621;28;20394;-59
2022/05/24 00:12:51;;;;;;;30.25;26.92;;;14.70;99.90;;;;;;5054232;28;20017;-59
2022/05/24 00:15:20;;;;;;;32.60;27.27;;;14.70;99.90;;;;;;5053620;28;20472;-59
2022/05/24 00:18:02;;;;;;;34.72;30.15;;;14.70;99.90;;;;;;5052428;28;20048;-59
2022/05/24 00:20:36;;;;;;;34.42;29.58;;;14.70;99.90;;;;;;5053678;28;20047;-59
2022/05/24 00:23:03;;;;;;;32.85;28.98;;;14.60;99.90;;;;;;5053555;28;20130;-59
2022/05/24 00:25:30;;;;;;;36.72;32.13;;;14.70;99.90;;;;;;5053273;28;20029;-59
2022/05/24 00:27:56;;;;;;;36.78;31.65;;;14.70;99.90;;;;;;5052173;28;20025;-59
2022/05/24 00:30:22;;;;;;;37.03;31.90;;;14.70;99.90;;;;;;5053330;28;20033;-59
2022/05/24 00:32:48;;;;;;;38.00;32.28;;;14.70;99.90;;;;;;5053362;28;20029;-59
2022/05/24 00:35:14;;;;;;;34.05;30.35;;;14.70;99.90;;;;;;5053212;28;20032;-59
2022/05/24 00:37:42;;;;;;;41.13;31.08;;;14.70;99.90;;;;;;5053289;28;20397;-59
2022/05/24 00:40:10;;;;;;;41.80;32.00;;;14.60;99.90;;;;;;5053183;28;20025;-59
2022/05/24 00:42:37;;;;;;;39.20;32.60;;;14.60;99.90;;;;;;5052319;28;20033;-59
2022/05/24 00:45:17;;;;;;;39.85;31.90;;;14.60;99.90;;;;;;5033062;28;20477;-59
2022/05/24 00:47:55;;;;;;;37.88;31.45;;;14.60;99.90;;;;;;5033136;28;20516;-59
2022/05/24 00:50:31;;;;;;;34.72;29.73;;;14.60;99.90;;;;;;5032997;28;20397;-59
2022/05/24 00:53:01;;;;;;;43.42;33.60;;;14.50;99.90;;;;;;5032952;28;20041;-59
2022/05/24 00:55:32;;;;;;;43.33;33.55;;;14.50;99.90;;;;;;5033325;28;20029;-59
2022/05/24 00:58:24;;;;;;;39.05;32.88;;;14.60;99.90;;;;;;5032918;28;20504;-59
2022/05/24 01:00:50;;;;;;;44.65;34.97;;;14.60;99.90;;;;;;5032982;28;20120;-59
2022/05/24 01:03:16;;;;;;;44.25;36.90;;;14.50;99.90;;;;;;5033161;28;20033;-59
2022/05/24 01:05:43;;;;;;;39.47;32.65;;;14.40;99.90;;;;;;5032861;28;20428;-59
2022/05/24 01:08:10;;;;;;;37.03;31.23;;;14.40;99.90;;;;;;5032827;28;20021;-59
2022/05/24 01:10:45;;;;;;;38.25;30.92;;;14.40;99.90;;;;;;5039918;28;20048;-59
2022/05/24 01:13:16;;;;;;;37.08;29.75;;;14.40;99.90;;;;;;5052561;28;20056;-59
2022/05/24 01:15:44;;;;;;;36.72;28.90;;;14.30;99.90;;;;;;5052603;28;20028;-59
2022/05/24 01:18:11;;;;;;;33.20;27.30;;;14.30;99.90;;;;;;5052611;28;20017;-59
2022/05/24 01:20:38;;;;;;;33.00;27.63;;;14.30;99.90;;;;;;5052596;28;20477;-59
2022/05/24 01:23:15;;;;;;;31.58;25.58;;;14.30;99.90;;;;;;5052574;28;20055;-59
2022/05/24 01:26:06;;;;;;;33.13;26.77;;;14.20;99.90;;;;;;5052537;28;20025;-59
2022/05/24 01:28:53;;;;;;;31.08;25.80;;;14.10;99.90;;;;;;5052679;28;20476;-59
2022/05/24 01:31:21;;;;;;;34.53;27.45;;;14.10;99.90;;;;;;5052539;28;20032;-59
2022/05/24 01:36:38;;;;;;;31.33;24.90;;;13.90;99.90;;;;;;5052345;28;20028;-59
2022/05/24 01:39:07;;;;;;;26.77;22.15;;;13.90;99.90;;;;;;5051114;28;20369;-59
2022/05/24 01:41:39;;;;;;;27.35;23.25;;;14.00;99.90;;;;;;5053019;28;20032;-59
2022/05/24 01:44:05;;;;;;;29.05;22.33;;;13.90;99.90;;;;;;5056516;28;20029;-59
2022/05/24 01:46:40;;;;;;;24.77;20.45;;;13.90;99.90;;;;;;5056742;28;20460;-59
2022/05/24 01:49:10;;;;;;;22.60;18.95;;;13.90;99.90;;;;;;5056422;28;20473;-59
2022/05/24 01:51:48;;;;;;;22.60;18.70;;;13.80;99.90;;;;;;5054942;28;20110;-59
2022/05/24 01:54:14;;;;;;;23.40;18.52;;;13.80;99.90;;;;;;5056443;28;20028;-59
2022/05/24 01:56:45;;;;;;;22.50;18.90;;;13.80;99.90;;;;;;5056698;28;20075;-59
2022/05/24 01:59:12;;;;;;;24.35;17.10;;;13.70;99.90;;;;;;5055972;28;20067;-59
2022/05/24 02:01:48;;;;;;;21.67;16.65;;;13.70;99.90;;;;;;5056235;28;20064;-59
2022/05/24 02:04:15;;;;;;;20.33;14.98;;;13.70;99.90;;;;;;5056264;28;20523;-59
2022/05/24 02:06:41;;;;;;;17.48;13.10;;;13.70;99.90;;;;;;5056233;28;20465;-59
2022/05/24 02:09:08;;;;;;;17.50;13.27;;;13.60;99.90;;;;;;5056112;28;20496;-59
2022/05/24 02:11:34;;;;;;;17.05;12.23;;;13.70;99.90;;;;;;5056286;28;20025;-59
2022/05/24 02:14:16;;;;;;;18.75;12.07;;;13.60;99.90;;;;;;5055741;28;20021;-59
2022/05/24 02:16:52;;;;;;;14.18;11.18;;;13.60;99.90;;;;;;5056029;28;20055;-59
2022/05/24 02:19:19;;;;;;;15.13;9.65;;;13.60;99.90;;;;;;5056435;28;20025;-59
2022/05/24 02:21:49;;;;;;;16.73;10.88;;;13.50;99.90;;;;;;5055877;28;20401;-59
2022/05/24 02:24:18;;;;;;;11.57;8.57;;;13.50;99.90;;;;;;5055671;28;20082;-59
2022/05/24 02:26:44;;;;;;;14.90;9.10;;;13.40;99.90;;;;;;5055759;28;20393;-59
2022/05/24 02:29:10;;;;;;;13.75;7.85;;;13.40;99.90;;;;;;5055570;28;20032;-59
2022/05/24 02:31:35;;;;;;;12.75;7.68;;;13.40;99.90;;;;;;5055649;28;20021;-59
2022/05/24 02:34:01;;;;;;;14.23;7.03;;;13.30;99.90;;;;;;5054355;28;20048;-59
2022/05/24 02:36:27;;;;;;;13.75;7.15;;;13.30;99.90;;;;;;5055505;28;20481;-59
2022/05/24 02:42:14;;;;;;;12.30;8.07;;;13.30;99.90;;;;;;5055770;28;20074;-59
2022/05/24 02:44:39;;;;;;;13.40;7.40;;;13.20;99.90;;;;;;5055299;28;20032;-59
2022/05/24 02:47:05;;;;;;;8.27;5.43;;;13.20;99.90;;;;;;5055271;28;20065;-59
2022/05/24 02:49:31;;;;;;;9.93;5.78;;;13.20;99.90;;;;;;5055377;28;20108;-59
2022/05/24 02:51:56;;;;;;;10.10;5.93;;;13.10;99.90;;;;;;5053626;28;20135;-58
2022/05/24 02:54:22;;;;;;;10.55;6.00;;;13.10;99.90;;;;;;5054990;28;20029;-58
2022/05/24 02:56:47;;;;;;;11.27;5.65;;;13.10;99.90;;;;;;5055177;28;20040;-59
2022/05/24 02:59:13;;;;;;;11.30;6.30;;;13.10;99.90;;;;;;5045881;28;20026;-59
2022/05/24 03:01:38;;;;;;;11.27;6.25;;;13.10;99.90;;;;;;5035181;28;20470;-58
2022/05/24 03:04:04;;;;;;;11.02;5.13;;;13.10;99.90;;;;;;5040702;28;20070;-59
2022/05/24 03:09:33;;;;;;;11.20;5.80;;;13.00;99.90;;;;;;5055022;28;20029;-58
2022/05/24 03:14:44;;;;;;;10.95;4.97;;;13.00;99.90;;;;;;5055078;28;20476;-58
2022/05/24 03:17:09;;;;;;;11.30;5.28;;;13.00;99.90;;;;;;5053536;28;20025;-57
2022/05/24 03:19:35;;;;;;;10.45;5.25;;;13.00;99.90;;;;;;5054890;28;20064;-58
2022/05/24 03:22:00;;;;;;;10.65;4.75;;;13.00;99.90;;;;;;5054704;28;20021;-57
2022/05/24 03:24:26;;;;;;;9.90;4.53;;;12.90;99.90;;;;;;5054716;28;20037;-58
2022/05/24 03:26:51;;;;;;;7.50;3.97;;;12.90;99.90;;;;;;5053534;28;20075;-57
2022/05/24 03:29:17;;;;;;;7.15;3.83;;;13.00;99.90;;;;;;5054879;28;20033;-58
2022/05/24 03:31:42;;;;;;;9.45;4.22;;;12.90;99.90;;;;;;5054423;28;20028;-58
2022/05/24 03:34:08;;;;;;;9.82;4.03;;;12.90;99.90;;;;;;5054467;28;20464;-58
2022/05/24 03:37:01;;;;;;;13.27;4.53;;;13.00;99.90;;;;;;5054278;28;20087;-58
2022/05/24 03:39:27;;;;;;;8.63;3.65;;;13.00;99.90;;;;;;5054291;28;20461;-58
2022/05/24 03:41:53;;;;;;;9.32;4.65;;;13.00;99.90;;;;;;5054326;28;20032;-58
2022/05/24 03:44:19;;;;;;;7.15;3.67;;;13.00;99.90;;;;;;5053112;28;20040;-58
2022/05/24 03:46:45;;;;;;;9.13;4.45;;;13.00;99.90;;;;;;5054229;28;20028;-58
2022/05/24 03:49:11;;;;;;;11.98;5.45;;;13.00;99.90;;;;;;5054193;28;20029;-58
2022/05/24 03:51:37;;;;;;;8.57;4.43;;;13.10;99.90;;;;;;5053859;28;20136;-58
2022/05/24 03:54:02;;;;;;;7.47;4.28;;;13.00;99.90;;;;;;5052826;28;20025;-57
2022/05/24 03:56:28;;;;;;;6.00;3.67;;;13.00;99.90;;;;;;5052837;28;20025;-58
2022/05/24 03:58:54;;;;;;;8.20;3.88;;;13.00;99.90;;;;;;5054365;28;20025;-58
2022/05/24 04:01:19;;;;;;;9.43;4.55;;;13.00;99.90;;;;;;5053816;28;20075;-58
2022/05/24 04:03:45;;;;;;;8.82;4.38;;;13.00;99.90;;;;;;5054072;28;20388;-59
2022/05/24 04:06:11;;;;;;;8.25;4.55;;;13.10;99.90;;;;;;5053207;28;20040;-58
2022/05/24 04:08:37;;;;;;;9.45;4.45;;;13.00;99.90;;;;;;5053835;28;20028;-58
2022/05/24 04:11:10;;;;;;;10.43;4.75;;;13.00;99.90;;;;;;5053753;28;20048;-58
2022/05/24 04:13:37;;;;;;;10.38;5.20;;;13.00;99.90;;;;;;5053815;28;20024;-58
2022/05/24 04:16:04;;;;;;;9.35;4.95;;;13.00;99.90;;;;;;5052208;28;20021;-58
2022/05/24 04:18:30;;;;;;;10.68;6.30;;;13.00;99.90;;;;;;5053753;28;20021;-57
2022/05/24 04:20:56;;;;;;;15.23;6.18;;;12.90;99.90;;;;;;5053205;28;20107;-57
2022/05/24 04:23:46;;;;;;;8.95;5.75;;;12.90;99.90;;;;;;5053684;28;20127;-57
2022/05/24 04:26:11;;;;;;;10.48;5.22;;;12.90;99.90;;;;;;5053130;28;20024;-57
2022/05/24 04:28:37;;;;;;;10.88;7.13;;;12.90;99.90;;;;;;5053598;28;20082;-58
2022/05/24 04:31:04;;;;;;;11.23;7.53;;;12.90;99.90;;;;;;5053109;28;20358;-58
2022/05/24 04:33:29;;;;;;;11.65;6.32;;;13.00;99.90;;;;;;5053572;28;20036;-57
2022/05/24 04:35:56;;;;;;;12.23;7.38;;;12.90;99.90;;;;;;5053203;28;20025;-58
2022/05/24 04:38:22;;;;;;;8.73;6.72;;;12.90;99.90;;;;;;5053329;28;20023;-58
2022/05/24 04:43:32;;;;;;;11.50;7.32;;;12.90;99.90;;;;;;5053335;28;20035;-58
2022/05/24 04:45:58;;;;;;;11.63;8.00;;;12.90;99.90;;;;;;5053043;28;20029;-58
2022/05/24 04:48:23;;;;;;;9.18;6.40;;;12.90;99.90;;;;;;5053015;28;20036;-57
2022/05/24 04:50:57;;;;;;;13.88;7.57;;;13.00;99.90;;;;;;5053037;28;20039;-58
2022/05/24 04:53:24;;;;;;;16.45;8.43;;;13.00;99.90;;;;;;5051895;28;20059;-58
2022/05/24 04:55:50;;;;;;;16.98;9.38;;;13.00;99.90;;;;;;5052999;28;20021;-58
2022/05/24 04:58:19;;;;;;;16.27;9.05;;;12.90;99.90;;;;;;5051736;28;20024;-58
2022/05/24 05:00:46;;;;;;;12.88;8.75;;;13.00;99.90;;;;;;5052938;28;20025;-58
2022/05/24 05:03:14;;;;;;;15.77;10.10;;;12.90;99.90;;;;;;5052741;28;20033;-58
2022/05/24 05:05:40;;;;;;;12.05;10.27;;;12.90;99.90;;;;;;5052921;28;20028;-58
2022/05/24 05:08:07;;;;;;;12.60;9.05;;;12.90;99.90;;;;;;5052767;28;20025;-58
2022/05/24 05:10:34;;;;;;;13.80;9.27;;;12.90;99.90;;;;;;5053195;28;20032;-57
2022/05/24 05:13:00;;;;;;;14.23;9.40;;;12.90;99.90;;;;;;5052659;28;20096;-58
2022/05/24 05:15:26;;;;;;;13.00;8.77;;;12.90;99.90;;;;;;5052471;28;20037;-58
2022/05/24 05:18:03;;;;;;;13.05;9.80;;;12.90;99.90;;;;;;5051457;28;20025;-58
2022/05/24 05:20:28;;;;;;;16.27;9.30;;;12.90;99.90;;;;;;5045658;28;20021;-58
2022/05/24 05:22:54;;;;;;;11.07;8.57;;;12.90;99.90;;;;;;5038492;28;20036;-58
2022/05/24 05:25:22;;;;;;;14.52;8.98;;;12.90;99.90;;;;;;5034707;28;20070;-58
2022/05/24 05:27:47;;;;;;;14.45;9.38;;;12.90;99.90;;;;;;5034209;28;20040;-58
2022/05/24 05:32:57;;;;;;;13.20;8.95;;;12.90;99.90;;;;;;5029101;28;20083;-57
2022/05/24 05:35:23;;;;;;;15.27;10.63;;;12.90;99.90;;;;;;5034088;28;20017;-57
2022/05/24 05:37:48;;;;;;;10.88;9.18;;;13.00;99.90;;;;;;5037369;28;20514;-58
2022/05/24 05:40:14;;;;;;;11.20;9.13;;;13.00;99.90;;;;;;5034272;28;20029;-58
2022/05/24 05:42:40;;;;;;;13.00;8.93;;;13.00;99.90;;;;;;5028253;28;20596;-58
2022/05/24 05:45:10;;;;;;;13.30;9.27;;;13.00;99.90;;;;;;5040092;28;20483;-58
2022/05/24 05:47:36;;;;;;;10.80;8.10;;;13.00;99.90;;;;;;5033568;28;20040;-58
2022/05/24 05:50:03;;;;;;;12.73;8.45;;;13.10;99.90;;;;;;5037475;28;20388;-57
2022/05/24 05:52:28;;;;;;;14.65;8.82;;;13.00;99.90;;;;;;5034505;28;20567;-57
2022/05/24 05:54:54;;;;;;;13.30;8.77;;;13.10;99.90;;;;;;5037271;28;20029;-58
2022/05/24 05:57:19;;;;;;;11.75;8.05;;;13.10;99.90;;;;;;5028224;28;20061;-58
2022/05/24 06:00:17;;;;;;;11.05;7.85;;;13.10;99.90;;;;;;5032657;28;20029;-58
2022/05/24 06:02:42;;;;;;;9.20;6.95;;;13.10;99.90;;;;;;5040863;28;20079;-57
2022/05/24 06:05:24;;;;;;;11.80;8.10;;;13.00;99.90;;;;;;5036741;28;20409;-57
2022/05/24 06:07:50;;;;;;;14.40;7.50;;;13.10;99.90;;;;;;5040177;28;20560;-58
2022/05/24 06:10:16;;;;;;;12.48;7.38;;;13.10;99.90;;;;;;5047417;28;20116;-57
2022/05/24 06:12:42;;;;;;;12.63;7.63;;;13.10;99.90;;;;;;5042471;28;20064;-58
2022/05/24 06:15:08;;;;;;;10.77;7.25;;;13.10;99.80;;;;;;5039771;28;20032;-58
2022/05/24 06:17:48;;;;;;;10.98;6.68;;;13.10;99.70;;;;;;5044968;28;20484;-57
2022/05/24 06:20:14;;;;;;;11.00;6.70;;;13.10;99.80;;;;;;5048863;28;20025;-58
2022/05/24 06:22:40;;;;;;;11.80;6.40;;;13.10;99.60;;;;;;5047542;28;20489;-57
2022/05/24 06:25:06;;;;;;;10.80;6.68;;;13.10;99.50;;;;;;5046210;28;20080;-58
2022/05/24 06:27:31;;;;;;;10.18;6.75;;;13.10;99.60;;;;;;5045948;28;20415;-58
2022/05/24 06:29:57;;;;;;;9.80;5.90;;;13.20;99.60;;;;;;5049257;28;20033;-58
2022/05/24 06:32:22;;;;;;;11.68;6.78;;;13.20;99.70;;;;;;5045010;28;20041;-58
2022/05/24 06:34:49;;;;;;;10.65;7.03;;;13.20;99.30;;;;;;5052806;28;20025;-59
2022/05/24 06:37:58;;;;;;;12.57;8.88;;;13.20;99.30;;;;;;5055362;28;20032;-58
2022/05/24 06:40:23;;;;;;;11.30;7.88;;;13.20;99.00;;;;;;5053378;28;20465;-58
2022/05/24 06:42:49;;;;;;;10.10;7.57;;;13.20;99.10;;;;;;5052637;28;20029;-58
2022/05/24 06:45:15;;;;;;;10.57;7.80;;;13.20;99.30;;;;;;5047950;28;20492;-58
2022/05/24 06:47:41;;;;;;;15.38;9.45;;;13.30;98.90;;;;;;5051144;28;20029;-58
2022/05/24 06:50:08;;;;;;;12.50;8.20;;;13.30;98.70;;;;;;5049245;28;20386;-59
2022/05/24 06:52:33;;;;;;;15.85;10.95;;;13.40;98.80;;;;;;5053344;28;20485;-58
2022/05/24 06:55:00;;;;;;;11.82;9.32;;;13.50;98.40;;;;;;5053507;28;20036;-58
2022/05/24 06:57:26;;;;;;;10.98;9.20;;;13.50;98.20;;;;;;5052930;28;20570;-58
2022/05/24 07:02:36;;;;;;;10.40;8.55;;;13.70;97.90;;;;;;5053966;28;20051;-58
2022/05/24 07:05:06;;;;;;;8.88;7.97;;;13.80;97.70;;;;;;5042838;28;20080;-59
2022/05/24 07:07:33;;;;;;;10.50;7.28;;;13.90;97.60;;;;;;5053816;28;20021;-58
2022/05/24 07:10:00;;;;;;;10.95;6.90;;;13.90;97.40;;;;;;5049425;28;20025;-59
2022/05/24 07:12:26;;;;;;;12.00;7.57;;;13.90;97.20;;;;;;5050489;28;20034;-59
2022/05/24 07:14:52;;;;;;;7.72;5.80;;;14.00;96.80;;;;;;5050289;28;20032;-59
2022/05/24 07:17:18;;;;;;;11.65;6.90;;;14.00;96.70;;;;;;5051805;28;20025;-58
2022/05/24 07:19:45;;;;;;;8.75;6.60;;;14.00;96.80;;;;;;5032570;28;20017;-59
2022/05/24 07:22:14;;;;;;;9.68;5.97;;;14.20;96.90;;;;;;5054271;28;20029;-59
2022/05/24 07:24:40;;;;;;;7.63;5.43;;;14.30;96.20;;;;;;5054733;28;20112;-59
2022/05/24 07:27:12;;;;;;;9.02;4.88;;;14.30;95.60;;;;;;5052507;28;20109;-58
2022/05/24 07:29:39;;;;;;;6.38;4.55;;;14.40;95.40;;;;;;5053017;28;20429;-59
2022/05/24 07:32:05;;;;;;;9.98;4.40;;;14.40;95.50;;;;;;5052746;28;20025;-59
2022/05/24 07:34:32;;;;;;;5.53;4.90;;;14.40;95.40;;;;;;5047430;28;20354;-59
2022/05/24 07:37:00;;;;;;;6.53;4.88;;;14.40;94.90;;;;;;5052548;28;20063;-59
2022/05/24 07:39:26;;;;;;;6.88;4.72;;;14.40;94.70;;;;;;5050943;28;20086;-59
2022/05/24 07:47:25;;;;;;;12.18;7.63;;;14.60;93.60;;;;;;5047678;28;20412;-59
2022/05/24 07:49:51;;;;;;;12.18;7.93;;;14.60;93.40;;;;;;5052602;28;20027;-58
2022/05/24 07:52:16;;;;;;;9.32;8.55;;;14.70;93.50;;;;;;5049078;28;20045;-58
2022/05/24 07:54:42;;;;;;;9.30;8.27;;;14.90;93.40;;;;;;5052295;28;20087;-58
2022/05/24 07:57:08;;;;;;;9.38;8.48;;;15.00;93.20;;;;;;5053063;28;20403;-59
2022/05/24 07:59:38;;;;;;;9.80;8.15;;;15.10;92.60;;;;;;5053903;28;20028;-58
2022/05/24 08:02:06;;;;;;;7.88;7.07;;;15.10;92.10;;;;;;5053981;28;20142;-58
2022/05/24 08:04:34;;;;;;;7.25;6.55;;;15.10;91.70;;;;;;5054044;28;20051;-59
2022/05/24 08:07:00;;;;;;;6.82;5.90;;;15.10;91.40;;;;;;5052463;28;20396;-58
2022/05/24 08:09:25;;;;;;;6.00;5.40;;;15.20;91.60;;;;;;5054026;28;20033;-58
2022/05/24 08:11:51;;;;;;;6.03;5.28;;;15.30;91.60;;;;;;5053795;28;20120;-58
2022/05/24 08:14:16;;;;;;;4.47;3.60;;;15.30;91.10;;;;;;5053502;28;20091;-59
2022/05/24 08:16:42;;;;;;;6.22;3.45;;;15.20;90.20;;;;;;5053737;28;20366;-58
2022/05/24 08:19:08;;;;;;;3.75;3.45;;;15.20;90.20;;;;;;5053425;28;20025;-59
2022/05/24 08:21:34;;;;;;;7.05;3.88;;;15.20;90.10;;;;;;5053492;28;20017;-58
2022/05/24 08:24:00;;;;;;;4.22;3.42;;;15.30;90.40;;;;;;5052187;28;20429;-58
2022/05/24 08:26:26;;;;;;;5.57;4.00;;;15.40;90.70;;;;;;5053498;28;20071;-58
2022/05/24 08:28:51;;;;;;;3.88;2.95;;;15.50;90.80;;;;;;5053282;28;20473;-59
2022/05/24 08:31:18;;;;;;;5.60;3.60;;;15.60;90.50;;;;;;5051808;28;20037;-59
2022/05/24 08:33:46;;;;;;;4.18;2.65;;;15.70;90.50;;;;;;5053405;28;20025;-59
2022/05/24 08:36:12;;;;;;;3.83;3.00;;;15.80;89.70;;;;;;5053003;28;20104;-58
2022/05/24 08:38:41;;;;;;;3.78;2.92;;;15.80;89.50;;;;;;5053403;28;20060;-58
2022/05/24 08:41:14;;;;;;;5.43;2.67;;;15.90;90.10;;;;;;5053112;28;20054;-59
2022/05/24 08:43:50;;;;;;;5.95;3.40;;;16.10;90.20;;;;;;5052492;28;20033;-58
2022/05/24 08:49:24;;;;;;;4.40;2.35;;;16.00;85.90;;;;;;5050493;28;20025;-58
2022/05/24 08:51:56;;;;;;;7.50;2.95;;;15.60;87.10;;;;;;5051536;28;20086;-58
2022/05/24 08:54:32;;;;;;;4.90;2.50;;;15.40;90.30;;;;;;5052934;28;20021;-58
2022/05/24 08:57:02;;;;;;;5.50;2.92;;;15.20;91.00;;;;;;5053309;28;20030;-58
2022/05/24 08:59:36;;;;;;;4.20;2.92;;;15.00;91.90;;;;;;5052989;28;20082;-59
2022/05/24 09:02:05;;;;;;;4.28;3.88;;;14.90;92.30;;;;;;5052790;28;20025;-58
2022/05/24 09:04:31;;;;;;;4.07;3.47;;;15.00;92.80;;;;;;5051767;28;20029;-59
2022/05/24 09:07:06;;;;;;;6.43;4.13;;;15.10;93.00;;;;;;5052756;28;20032;-59
2022/05/24 09:10:09;;;;;;;4.75;4.15;;;15.30;93.00;;;;;;5052770;28;20473;-58
2022/05/24 09:13:08;;;;;;;6.72;4.20;;;15.30;92.80;;;;;;5052610;28;20473;-58
2022/05/24 09:16:00;;;;;;;6.25;4.00;;;15.30;92.90;;;;;;5051349;28;20545;-58
2022/05/24 09:18:34;;;;;;;7.60;3.92;;;15.30;92.50;;;;;;5052515;28;20075;-58
2022/05/24 09:20:59;;;;;;;3.53;2.35;;;15.20;92.50;;;;;;5051141;28;20472;-58
2022/05/24 09:23:48;;;;;;;4.78;2.28;;;15.10;91.50;;;;;;5052357;28;20024;-58
2022/05/24 09:26:20;;;;;;;3.63;2.92;;;15.00;91.90;;;;;;5051014;28;20107;-58
2022/05/24 09:28:48;;;;;;;3.50;2.67;;;14.90;92.80;;;;;;5052482;28;20021;-58
2022/05/24 09:31:54;;;;;;;4.70;2.20;;;14.80;93.20;;;;;;5050590;28;20021;-58
2022/05/24 09:34:27;;;;;;;2.90;1.70;;;14.90;93.50;;;;;;5050558;28;20036;-58
2022/05/24 09:37:05;;;;;;;3.53;1.85;;;15.00;93.90;;;;;;5052352;28;20032;-58
2022/05/24 09:39:31;;;;;;;2.40;1.65;;;15.20;93.90;;;;;;5051056;28;20029;-58
2022/05/24 09:42:09;;;;;;;3.30;1.63;;;15.40;93.60;;;;;;5052081;28;20032;-58
2022/05/24 09:44:59;;;;;;;4.13;2.30;;;15.60;93.20;;;;;;5052345;28;20477;-58
2022/05/24 09:47:35;;;;;;;4.22;1.90;;;15.80;93.00;;;;;;5052338;28;20025;-58
2022/05/24 09:50:30;;;;;;;3.35;1.77;;;15.80;92.30;;;;;;5052246;28;20116;-58
2022/05/24 09:53:12;;;;;;;2.05;1.05;;;15.60;92.30;;;;;;5051934;28;20049;-58
2022/05/24 09:55:38;;;;;;;2.70;1.17;;;15.40;92.10;;;;;;5052294;28;20075;-58
2022/05/24 09:58:28;;;;;;;3.08;1.77;;;15.20;92.50;;;;;;5051985;28;20071;-58
2022/05/24 10:01:13;;;;;;;;;;;15.10;93.00;;;;;;5052589;28;20092;-58
2022/05/24 10:03:40;;;;;;;3.90;2.38;;;15.00;93.40;;;;;;5054372;28;20276;-58
2022/05/24 10:06:11;;;;;;;3.72;2.35;;;15.10;94.20;;;;;;5056003;28;20109;-58
2022/05/24 10:08:41;;;;;;;5.68;2.00;;;15.20;94.00;;;;;;5055936;28;20073;-59
2022/05/24 10:11:31;;;;;;;3.97;2.08;;;15.20;94.00;;;;;;5055040;28;20544;-58
2022/05/24 10:14:11;;;;;;;1.98;1.13;;;15.20;93.50;;;;;;5056076;28;20032;-58
2022/05/24 10:17:16;;;;;;;2.67;1.25;;;15.30;93.00;;;;;;5055921;28;20021;-59
2022/05/24 10:20:05;;;;;;;3.55;1.05;;;15.40;93.00;;;;;;5033356;28;20099;-59
2022/05/24 10:22:40;;;;;;;2.90;1.07;;;15.50;93.40;;;;;;5055439;28;20389;-58
2022/05/24 10:25:29;;;;;;;1.67;0.90;;;15.60;92.90;;;;;;5055110;28;20021;-58
2022/05/24 10:28:03;;;;;;;2.33;1.30;;;15.90;92.50;;;;;;5055883;28;20108;-58
2022/05/24 10:30:45;;;;;;;2.17;1.13;;;16.20;91.80;;;;;;5055750;28;20033;-58
2022/05/24 10:40:01;;;;;;;2.10;0.80;;;16.10;91.20;;;;;;5055436;28;20545;-58
2022/05/24 10:42:33;;;;;;;2.38;0.50;;;16.00;90.60;;;;;;5055086;28;20021;-58
2022/05/24 10:45:08;;;;;;;0.55;0.30;;;15.80;91.20;;;;;;5053103;28;20033;-58
2022/05/24 10:47:45;;;;;;;2.47;0.32;;;15.70;91.40;;;;;;5048648;28;20021;-58
2022/05/24 10:50:16;;;;;;;1.05;0.35;;;15.60;91.30;;;;;;5055320;28;20070;-58
2022/05/24 10:52:52;;;;;;;1.10;0.30;;;15.50;91.20;;;;;;5054622;28;20049;-58
2022/05/24 10:55:30;;;;;;;0.52;0.20;;;15.40;91.40;;;;;;5054772;28;20021;-59
2022/05/24 10:58:01;;;;;;;1.10;0.40;;;15.40;91.40;;;;;;5055296;28;20107;-58
2022/05/24 11:01:03;;;;;;;1.55;0.30;;;15.40;91.30;;;;;;5055286;28;20025;-58
2022/05/24 11:03:34;;;;;;;1.58;0.43;;;15.60;91.10;;;;;;5054058;28;20024;-58
2022/05/24 11:06:31;;;;;;;1.27;0.38;;;15.70;90.80;;;;;;5053450;28;20028;-58
2022/05/24 11:09:13;;;;;;;1.10;0.40;;;16.00;90.70;;;;;;5048544;28;20025;-58
2022/05/24 11:12:04;;;;;;;1.55;0.40;;;16.10;90.10;;;;;;5050070;28;20029;-58
2022/05/24 11:14:51;;;;;;;2.05;0.50;;;16.30;90.00;;;;;;5048742;28;20052;-58
2022/05/24 11:17:20;;;;;;;1.52;0.55;;;16.50;89.40;;;;;;5039480;28;20051;-58
2022/05/24 11:19:49;;;;;;;2.28;0.55;;;16.50;89.60;;;;;;5053094;28;20021;-58
2022/05/24 11:22:25;;;;;;;;;;;16.70;89.80;;;;;;5050748;28;20772;-58
2022/05/24 11:25:00;;;;;;;1.20;0.63;;;16.80;90.00;;;;;;5051704;28;19927;-58
2022/05/24 11:27:44;;;;;;;2.85;1.00;;;17.00;88.60;;;;;;5052744;28;20056;-59
2022/05/24 11:30:38;;;;;;;2.90;1.13;;;17.10;86.70;;;;;;5052619;28;20379;-58
2022/05/24 11:33:05;;;;;;;3.38;1.33;;;17.20;86.70;;;;;;5052329;28;20033;-58
2022/05/24 11:35:38;;;;;;;2.38;1.45;;;17.20;85.30;;;;;;5049841;28;20051;-59
2022/05/24 11:38:16;;;;;;;2.30;1.08;;;17.40;85.70;;;;;;5050925;28;20021;-59
2022/05/24 11:40:54;;;;;;;2.35;0.82;;;17.60;84.70;;;;;;5059919;28;20069;-58
2022/05/24 11:43:35;;;;;;;2.60;1.05;;;17.70;82.70;;;;;;5043414;28;20065;-59
2022/05/24 11:46:02;;;;;;;2.20;0.40;;;17.70;81.80;;;;;;5052842;28;20071;-59
2022/05/24 11:48:48;;;;;;;1.38;0.40;;;17.60;82.00;;;;;;5054780;28;20162;-59
2022/05/24 11:51:37;;;;;;;0.57;0.30;;;17.50;82.00;;;;;;5053635;28;20400;-59
2022/05/24 11:54:27;;;;;;;1.40;0.30;;;17.30;81.70;;;;;;5054073;28;20022;-59
2022/05/24 11:57:02;;;;;;;;;;;17.20;81.90;;;;;;5054279;28;20362;-59
2022/05/24 11:59:57;;;;;;;0.35;0.20;;;17.10;82.40;;;;;;5053258;28;19912;-59
2022/05/24 12:02:24;;;;;;;1.45;0.30;;;17.40;82.80;;;;;;5053821;28;20102;-58
2022/05/24 12:07:56;;;;;;;1.90;0.50;;;18.00;83.10;;;;;;5053912;28;20047;-59
2022/05/24 12:10:21;;;;;;;1.25;0.55;;;18.20;83.20;;;;;;5053086;28;20043;-59
2022/05/24 12:12:50;;;;;;;2.22;0.40;;;18.30;82.50;;;;;;5053390;28;20377;-59
2022/05/24 12:15:19;;;;;;;1.23;0.55;;;18.40;82.40;;;;;;5052808;28;20420;-59
2022/05/24 12:17:51;;;;;;;2.05;0.80;;;18.40;81.80;;;;;;5051619;28;20021;-59
2022/05/24 12:20:35;;;;;;;3.25;0.60;;;18.30;81.60;;;;;;5051621;28;20103;-58
2022/05/24 12:23:06;;;;;;;2.35;0.70;;;18.30;81.70;;;;;;5051524;28;20032;-59
2022/05/24 12:25:57;;;;;;;1.40;0.70;;;18.40;81.70;;;;;;5048209;28;20370;-59
2022/05/24 12:28:41;;;;;;;1.55;0.60;;;18.50;81.30;;;;;;5049494;28;20088;-59
2022/05/24 12:31:12;;;;;;;0.73;0.43;;;18.80;81.00;;;;;;5050711;28;20291;-59
2022/05/24 12:33:43;;;;;;;1.52;0.68;;;19.00;79.40;;;;;;5049460;28;20021;-59
2022/05/24 12:36:17;;;;;;;2.00;0.50;;;19.20;79.00;;;;;;5051499;28;20101;-59
2022/05/24 12:38:48;;;;;;;1.65;0.70;;;19.40;78.10;;;;;;5051450;28;20066;-59
2022/05/24 12:41:25;;;;;;;0.70;0.50;;;19.50;76.80;;;;;;5053194;28;20112;-59
2022/05/24 12:43:57;;;;;;;0.95;0.40;;;19.40;76.00;;;;;;5046083;28;20025;-59
2022/05/24 12:46:27;;;;;;;2.15;0.73;;;19.50;76.30;;;;;;5049335;28;20099;-58
2022/05/24 12:49:04;;;;;;;2.72;0.65;;;19.60;75.80;;;;;;5050329;28;20102;-59
2022/05/24 12:51:29;;;;;;;1.05;0.50;;;19.60;75.00;;;;;;5052731;28;20053;-60
2022/05/24 12:53:55;;;;;;;1.08;0.60;;;19.60;74.60;;;;;;5052900;28;20354;-60
2022/05/24 12:56:23;;;;;;;1.77;0.68;;;19.60;74.40;;;;;;5045412;28;20025;-60
2022/05/24 12:58:51;;;;;;;1.25;0.60;;;19.70;74.50;;;;;;5051318;28;20064;-60
2022/05/24 13:01:25;;;;;;;1.27;0.50;;;19.60;73.20;;;;;;5048537;28;20025;-60
2022/05/24 13:04:13;;;;;;;1.85;0.50;;;19.50;73.10;;;;;;5051207;28;20112;-60
2022/05/24 13:06:41;;;;;;;1.10;0.50;;;19.60;73.40;;;;;;5048481;28;20468;-60
2022/05/24 13:09:23;;;;;;;2.72;0.60;;;19.50;72.80;;;;;;5051240;28;20074;-60
2022/05/24 13:11:55;;;;;;;2.20;0.47;;;19.50;72.50;;;;;;5049742;28;20024;-60
2022/05/24 13:14:36;;;;;;;1.05;0.50;;;19.40;72.10;;;;;;5048203;28;20148;-59
2022/05/24 13:17:05;;;;;;;1.30;0.60;;;19.30;72.30;;;;;;5051011;28;20024;-61
2022/05/24 13:19:45;;;;;;;2.45;0.60;;;18.80;73.60;;;;;;5036000;28;20021;-60
2022/05/24 13:22:11;;;;;;;1.38;0.38;;;18.50;76.90;;;;;;5034741;28;20025;-60
2022/05/24 13:24:53;;;;;;;3.05;0.30;;;18.40;78.10;;;;;;5035128;28;20051;-60
2022/05/24 13:27:19;;;;;;;0.90;0.30;;;18.30;78.10;;;;;;5035765;28;20493;-60
2022/05/24 13:35:25;;;;;;;0.95;0.20;;;18.60;78.40;;;;;;5037975;28;20502;-60
2022/05/24 13:37:57;;;;;;;0.17;0.17;;;18.70;78.20;;;;;;5036449;28;20029;-60
2022/05/24 13:40:49;;;;;;;0.82;0.30;;;18.80;78.00;;;;;;5034344;28;20100;-60
2022/05/24 13:43:37;;;;;;;1.10;0.40;;;18.80;77.30;;;;;;5036582;28;20021;-60
2022/05/24 13:46:15;;;;;;;1.85;0.40;;;18.90;77.20;;;;;;5033399;28;20026;-59